KDUX

Details ICAO KDUX
Name MOORE CO
Region United States
Timezone America/Chicago (UTC-6.0)
Plans Departing 4
Arriving 1
Stats Elevation 3,705 ft / 1,129 m (AMSL)
Location 35.858268° -102.012996°
Runways 2
Magnetic Variation 6.362° E
Sunrise 2017-12-18 13:54:21 UTC / 2017-12-18 07:54:21 Local
Sunset 2017-12-18 23:37:57 UTC / 2017-12-18 17:37:57 Local
Advertisement - Login to hide

Runways

ID Width Length Bearing (true) Bearing (mag) Surface Threshold Offset Overrun Length
01 75 ft / 23 m 5,482 ft / 1,671 m 23.05° 16.69° Asphalt 0 ft / 0 m 0 ft / 0 m
14 60 ft / 18 m 3,103 ft / 946 m 151.67° 145.31° Asphalt 0 ft / 0 m 0 ft / 0 m
19 75 ft / 23 m 5,482 ft / 1,671 m 203.06° 196.70° Asphalt 0 ft / 0 m 0 ft / 0 m
32 60 ft / 18 m 3,103 ft / 946 m 331.67° 325.31° Asphalt 0 ft / 0 m 0 ft / 0 m

Map

Weather


0- 5 10 15 20 25 30 35+ Temperature / ° C

Clouds and Precipitation
Forecast for 2017-12-18 12:00 UTC. Updated 2 hours ago

Ground ~20,000 ft ~40,000 ft Winds

METAR

KDUX 181055Z AUTO 22011KT 10SM CLR 00/M05 A3002 RMK AO2 T10031048

TAF

Not found

Frequencies

Recorded 118.07 MHz AWOS 3
Unicom 122.80 MHz CTAF/UNICOM
Warning: Do not use this data for real-world aviation or navigation. No guarantee of current accuracy is given.